createdAt,value
2023-12-30T00:01:01.501Z,75.22
2023-12-30T00:03:30.533Z,75.22
2023-12-30T00:05:58.322Z,75.25
2023-12-30T00:08:25.848Z,75.24
2023-12-30T00:10:54.759Z,75.30
2023-12-30T00:13:22.880Z,75.28
2023-12-30T00:15:50.498Z,75.26
2023-12-30T00:18:19.552Z,75.20
2023-12-30T00:20:47.441Z,75.20
2023-12-30T00:23:15.207Z,75.16
2023-12-30T00:25:44.305Z,75.22
2023-12-30T00:28:12.114Z,75.40
2023-12-30T00:30:39.977Z,75.46
2023-12-30T00:33:09.021Z,75.30
2023-12-30T00:35:36.988Z,74.99
2023-12-30T00:38:04.745Z,74.85
2023-12-30T00:40:33.641Z,74.68
2023-12-30T00:43:01.633Z,74.74
2023-12-30T00:45:32.127Z,74.27
2023-12-30T00:47:59.931Z,74.30
2023-12-30T00:50:27.660Z,74.16
2023-12-30T00:52:56.660Z,73.98
2023-12-30T00:55:24.324Z,73.93
2023-12-30T00:57:52.012Z,73.88
2023-12-30T01:00:22.606Z,73.68
2023-12-30T01:02:50.273Z,73.37
2023-12-30T01:05:18.061Z,73.12
2023-12-30T01:07:47.116Z,73.02
2023-12-30T01:10:15.131Z,72.67
2023-12-30T01:12:42.865Z,72.67
2023-12-30T01:15:11.638Z,72.45
2023-12-30T01:17:39.399Z,72.17
2023-12-30T01:20:09.307Z,72.05
2023-12-30T01:22:39.038Z,71.98
2023-12-30T01:25:06.739Z,71.98
2023-12-30T01:27:34.451Z,71.92
2023-12-30T01:30:03.476Z,71.85
2023-12-30T01:32:31.432Z,71.82
2023-12-30T01:34:59.019Z,71.73
2023-12-30T01:37:28.110Z,71.76
2023-12-30T01:39:55.934Z,71.66
2023-12-30T01:42:24.004Z,71.68
2023-12-30T01:44:53.122Z,71.51
2023-12-30T01:47:21.094Z,71.60
2023-12-30T01:49:48.658Z,71.65
2023-12-30T01:52:17.764Z,71.66
2023-12-30T01:54:45.690Z,71.59
2023-12-30T01:57:13.241Z,71.63
2023-12-30T01:59:42.028Z,71.49
2023-12-30T02:02:09.994Z,71.65
2023-12-30T02:04:37.946Z,71.50
2023-12-30T02:07:07.339Z,71.47
2023-12-30T02:09:35.053Z,71.51
2023-12-30T02:12:02.897Z,71.65
2023-12-30T02:14:31.899Z,71.57
2023-12-30T02:16:59.649Z,71.63
2023-12-30T02:19:27.696Z,71.64
2023-12-30T02:21:56.662Z,71.58
2023-12-30T02:24:24.378Z,71.66
2023-12-30T02:26:52.042Z,71.81
2023-12-30T02:29:20.824Z,71.89
2023-12-30T02:31:48.799Z,71.87
2023-12-30T02:34:16.746Z,71.93
2023-12-30T02:36:45.664Z,71.99
2023-12-30T02:39:13.517Z,71.84
2023-12-30T02:41:41.392Z,71.89
2023-12-30T02:44:10.268Z,72.01
2023-12-30T02:46:38.242Z,72.06
2023-12-30T02:49:06.133Z,72.06
2023-12-30T02:51:35.109Z,72.07
2023-12-30T02:54:02.758Z,71.99
2023-12-30T02:56:30.420Z,71.83
2023-12-30T02:58:59.313Z,72.01
2023-12-30T03:01:27.511Z,71.93
2023-12-30T03:03:57.651Z,71.98
2023-12-30T03:06:25.469Z,71.96
2023-12-30T03:08:53.068Z,71.95
2023-12-30T03:11:22.019Z,72.05
2023-12-30T03:13:49.586Z,72.16
2023-12-30T03:16:17.174Z,72.23
2023-12-30T03:18:46.214Z,72.46
2023-12-30T03:21:14.211Z,72.70
2023-12-30T03:23:41.852Z,72.85
2023-12-30T03:26:10.762Z,73.12
2023-12-30T03:28:38.784Z,73.19
2023-12-30T03:31:06.637Z,73.27
2023-12-30T03:33:35.608Z,73.53
2023-12-30T03:36:03.441Z,73.66
2023-12-30T03:38:31.007Z,73.68
2023-12-30T03:40:59.888Z,73.71
2023-12-30T03:43:27.787Z,73.66
2023-12-30T03:45:55.369Z,73.62
2023-12-30T03:48:24.323Z,73.52
2023-12-30T03:50:52.079Z,73.49
2023-12-30T03:53:19.781Z,73.65
2023-12-30T03:55:48.839Z,73.91
2023-12-30T03:58:16.569Z,74.06
2023-12-30T04:00:44.409Z,74.09
2023-12-30T04:03:13.873Z,74.17
2023-12-30T04:05:41.829Z,74.16
2023-12-30T04:08:11.967Z,74.26
2023-12-30T04:10:39.775Z,74.25
2023-12-30T04:13:07.860Z,74.31
2023-12-30T04:15:36.782Z,74.33
2023-12-30T04:18:04.796Z,74.48
2023-12-30T04:20:32.705Z,74.49
2023-12-30T04:23:02.716Z,74.48
2023-12-30T04:25:30.525Z,74.56
2023-12-30T04:28:00.595Z,74.57
2023-12-30T04:30:28.652Z,74.69
2023-12-30T04:32:56.528Z,74.81
2023-12-30T04:35:25.356Z,74.88
2023-12-30T04:37:53.213Z,74.94
2023-12-30T04:40:21.037Z,74.94
2023-12-30T04:42:50.100Z,74.94
2023-12-30T04:45:17.836Z,74.91
2023-12-30T04:47:45.623Z,74.91
2023-12-30T04:50:15.217Z,74.86
2023-12-30T04:52:43.086Z,74.85
2023-12-30T04:55:13.018Z,74.96
2023-12-30T04:57:40.744Z,74.97
2023-12-30T05:00:08.643Z,74.97
2023-12-30T05:02:37.637Z,75.07
2023-12-30T05:05:05.293Z,75.10
2023-12-30T05:07:33.244Z,75.20
2023-12-30T05:10:02.481Z,75.21
2023-12-30T05:12:30.636Z,75.22
2023-12-30T05:14:58.402Z,75.11
2023-12-30T05:17:27.290Z,75.16
2023-12-30T05:19:55.685Z,74.96
2023-12-30T05:22:25.788Z,74.67
2023-12-30T05:24:53.673Z,74.35
2023-12-30T05:27:21.508Z,74.17
2023-12-30T05:29:50.598Z,73.93
2023-12-30T05:32:18.452Z,73.66
2023-12-30T05:34:46.691Z,73.55
2023-12-30T05:37:15.682Z,73.24
2023-12-30T05:39:43.595Z,72.94
2023-12-30T05:42:11.449Z,72.63
2023-12-30T05:44:40.477Z,72.50
2023-12-30T05:47:08.219Z,72.49
2023-12-30T05:49:36.307Z,72.35
2023-12-30T05:52:05.393Z,72.36
2023-12-30T05:54:33.573Z,72.31
2023-12-30T05:57:01.433Z,72.40
2023-12-30T05:59:30.561Z,72.42
2023-12-30T06:01:58.313Z,72.32
2023-12-30T06:04:26.252Z,72.45
2023-12-30T06:06:55.458Z,72.22
2023-12-30T06:09:23.212Z,72.18
2023-12-30T06:11:50.984Z,72.38
2023-12-30T06:14:20.260Z,72.37
2023-12-30T06:16:48.132Z,72.69
2023-12-30T06:19:18.000Z,72.61
2023-12-30T06:21:47.441Z,72.60
2023-12-30T06:24:15.121Z,72.86
2023-12-30T06:26:43.067Z,72.95
2023-12-30T06:29:12.314Z,72.88
2023-12-30T06:31:40.294Z,72.72
2023-12-30T06:34:08.319Z,72.78
2023-12-30T06:36:39.253Z,72.59
2023-12-30T06:39:08.248Z,72.83
2023-12-30T06:41:37.849Z,72.33
2023-12-30T06:44:05.723Z,72.15
2023-12-30T06:46:33.645Z,72.34
2023-12-30T06:49:02.785Z,71.99
2023-12-30T06:51:30.921Z,72.04
2023-12-30T06:53:58.728Z,71.70
2023-12-30T06:56:27.984Z,71.45
2023-12-30T06:58:55.791Z,71.54
2023-12-30T07:01:26.017Z,71.50
2023-12-30T07:03:54.125Z,71.00
2023-12-30T07:06:21.940Z,70.77
2023-12-30T07:08:50.931Z,70.63
2023-12-30T07:11:18.804Z,70.61
2023-12-30T07:13:46.678Z,70.57
2023-12-30T07:16:15.703Z,70.52
2023-12-30T07:18:43.599Z,70.42
2023-12-30T07:21:11.489Z,70.51
2023-12-30T07:23:40.487Z,70.58
2023-12-30T07:26:08.349Z,70.28
2023-12-30T07:28:36.321Z,70.65
2023-12-30T07:31:05.513Z,70.43
2023-12-30T07:33:33.649Z,69.88
2023-12-30T07:36:01.756Z,69.39
2023-12-30T07:38:30.854Z,69.20
2023-12-30T07:40:58.621Z,69.96
2023-12-30T07:43:26.394Z,70.34
2023-12-30T07:45:55.716Z,70.46
2023-12-30T07:48:23.678Z,70.79
2023-12-30T07:50:51.520Z,70.99
2023-12-30T07:53:20.706Z,71.00
2023-12-30T07:55:48.779Z,70.64
2023-12-30T07:58:16.576Z,70.29
2023-12-30T08:00:45.667Z,70.23
2023-12-30T08:03:13.501Z,70.21
2023-12-30T08:05:41.281Z,69.67
2023-12-30T08:08:10.361Z,69.68
2023-12-30T08:10:38.212Z,69.53
2023-12-30T08:13:06.323Z,69.38
2023-12-30T08:15:35.885Z,69.27
2023-12-30T08:18:03.622Z,68.87
2023-12-30T08:20:31.555Z,68.54
2023-12-30T08:23:01.018Z,68.12
2023-12-30T08:25:29.073Z,67.87
2023-12-30T08:27:59.152Z,67.31
2023-12-30T08:30:27.030Z,66.93
2023-12-30T08:32:54.812Z,66.88
2023-12-30T08:35:24.032Z,66.63
2023-12-30T08:37:51.689Z,68.57
2023-12-30T08:40:19.407Z,69.67
2023-12-30T08:42:48.874Z,69.82
2023-12-30T08:45:16.529Z,70.61
2023-12-30T08:47:46.600Z,71.24
2023-12-30T08:50:14.530Z,71.53
2023-12-30T08:52:42.378Z,71.82
2023-12-30T08:55:11.619Z,72.27
2023-12-30T08:57:39.487Z,72.54
2023-12-30T09:00:07.474Z,72.87
2023-12-30T09:02:36.573Z,73.18
2023-12-30T09:05:04.165Z,73.38
2023-12-30T09:07:32.198Z,73.36
2023-12-30T09:10:01.618Z,73.70
2023-12-30T09:12:29.514Z,73.83
2023-12-30T09:14:59.649Z,73.89
2023-12-30T09:17:27.563Z,74.09
2023-12-30T09:19:55.332Z,74.37
2023-12-30T09:22:24.501Z,74.44
2023-12-30T09:24:52.331Z,74.67
2023-12-30T09:27:19.986Z,74.40
2023-12-30T09:29:48.962Z,74.27
2023-12-30T09:32:16.641Z,74.18
2023-12-30T09:34:44.894Z,74.12
2023-12-30T09:37:14.474Z,74.26
2023-12-30T09:39:42.180Z,73.99
2023-12-30T09:42:09.942Z,73.83
2023-12-30T09:44:38.843Z,73.42
2023-12-30T09:47:06.989Z,73.12
2023-12-30T09:49:34.921Z,72.77
2023-12-30T09:52:04.131Z,72.47
2023-12-30T09:54:42.216Z,72.28
2023-12-30T09:57:15.892Z,72.27
2023-12-30T09:59:43.651Z,72.36
2023-12-30T10:02:11.562Z,72.35
2023-12-30T10:04:40.971Z,72.35
2023-12-30T10:07:08.847Z,72.16
2023-12-30T10:09:36.869Z,72.17
2023-12-30T10:12:05.945Z,71.81
2023-12-30T10:14:33.931Z,71.56
2023-12-30T10:17:01.928Z,71.14
2023-12-30T10:19:31.009Z,71.09
2023-12-30T10:21:58.770Z,70.73
2023-12-30T10:24:26.616Z,70.40
2023-12-30T10:26:55.687Z,70.15
2023-12-30T10:29:23.935Z,70.13
2023-12-30T10:31:51.791Z,70.09
2023-12-30T10:34:21.098Z,69.82
2023-12-30T10:36:48.973Z,69.59
2023-12-30T10:39:19.123Z,69.46
2023-12-30T10:41:47.138Z,69.59
2023-12-30T10:44:14.965Z,69.69
2023-12-30T10:46:44.306Z,69.69
2023-12-30T10:49:12.459Z,69.88
2023-12-30T10:51:42.562Z,69.89
2023-12-30T10:54:10.429Z,70.06
2023-12-30T10:56:38.286Z,70.19
2023-12-30T10:59:07.298Z,70.30
2023-12-30T11:01:35.300Z,70.52
2023-12-30T11:04:03.298Z,71.08
2023-12-30T11:06:32.497Z,71.51
2023-12-30T11:09:00.397Z,71.73
2023-12-30T11:11:28.355Z,71.88
2023-12-30T11:13:57.488Z,71.90
2023-12-30T11:16:25.397Z,71.90
2023-12-30T11:18:53.191Z,72.21
2023-12-30T11:21:22.184Z,72.18
2023-12-30T11:23:49.826Z,72.13
2023-12-30T11:26:17.880Z,71.75
2023-12-30T11:28:46.952Z,71.59
2023-12-30T11:31:14.994Z,71.36
2023-12-30T11:33:43.173Z,71.37
2023-12-30T11:36:12.205Z,71.40
2023-12-30T11:38:40.189Z,71.47
2023-12-30T11:41:08.066Z,71.46
2023-12-30T11:43:37.421Z,71.59
2023-12-30T11:46:05.288Z,71.64
2023-12-30T11:48:33.641Z,71.72
2023-12-30T11:51:02.601Z,71.50
2023-12-30T11:53:30.474Z,71.31
2023-12-30T11:55:58.329Z,71.19
2023-12-30T11:58:27.478Z,71.30
2023-12-30T12:00:55.231Z,71.26
2023-12-30T12:03:23.055Z,71.05
2023-12-30T12:05:52.583Z,70.92
2023-12-30T12:08:20.324Z,70.90
2023-12-30T12:10:50.447Z,71.04
2023-12-30T12:13:18.613Z,71.03
2023-12-30T12:15:46.796Z,71.05
2023-12-30T12:18:16.342Z,70.92
2023-12-30T12:20:44.257Z,70.72
2023-12-30T12:23:12.048Z,70.45
2023-12-30T12:25:41.221Z,70.46
2023-12-30T12:28:09.693Z,70.16
2023-12-30T12:30:39.857Z,70.01
2023-12-30T12:33:07.772Z,70.03
2023-12-30T12:35:35.446Z,69.88
2023-12-30T12:38:04.533Z,69.50
2023-12-30T12:40:32.235Z,69.40
2023-12-30T12:43:00.796Z,69.60
2023-12-30T12:45:31.820Z,69.08
2023-12-30T12:47:59.640Z,69.13
2023-12-30T12:50:28.675Z,68.83
2023-12-30T12:52:56.430Z,68.58
2023-12-30T12:55:24.369Z,68.58
2023-12-30T12:57:53.628Z,68.39
2023-12-30T13:00:21.291Z,68.30
2023-12-30T13:02:49.207Z,68.24
2023-12-30T13:05:18.396Z,68.33
2023-12-30T13:07:46.495Z,68.45
2023-12-30T13:10:14.481Z,68.33
2023-12-30T13:12:43.573Z,67.96
2023-12-30T13:15:11.350Z,68.05
2023-12-30T13:17:39.261Z,68.17
2023-12-30T13:20:08.418Z,68.13
2023-12-30T13:22:36.384Z,68.27
2023-12-30T13:25:04.403Z,68.26
2023-12-30T13:27:33.630Z,68.24
2023-12-30T13:30:01.488Z,68.31
2023-12-30T13:32:29.456Z,68.27
2023-12-30T13:34:58.718Z,68.10
2023-12-30T13:37:26.743Z,68.03
2023-12-30T13:39:54.912Z,67.94
2023-12-30T13:42:24.138Z,67.84
2023-12-30T13:44:51.959Z,68.01
2023-12-30T13:47:19.935Z,68.02
2023-12-30T13:49:49.121Z,68.15
2023-12-30T13:52:17.247Z,68.18
2023-12-30T13:54:45.068Z,68.12
2023-12-30T13:57:15.113Z,68.37
2023-12-30T13:59:42.937Z,68.39
2023-12-30T14:02:13.105Z,68.21
2023-12-30T14:04:41.311Z,68.31
2023-12-30T14:07:09.370Z,68.39
2023-12-30T14:09:38.713Z,68.54
2023-12-30T14:12:07.110Z,68.50
2023-12-30T14:14:37.232Z,68.33
2023-12-30T14:17:05.093Z,68.39
2023-12-30T14:19:33.234Z,68.32
2023-12-30T14:22:02.422Z,68.35
2023-12-30T14:24:30.128Z,68.38
2023-12-30T14:26:58.156Z,68.45
2023-12-30T14:29:27.080Z,68.42
2023-12-30T14:31:54.957Z,68.35
2023-12-30T14:37:05.288Z,68.36
2023-12-30T14:39:32.877Z,68.39
2023-12-30T14:42:00.752Z,68.55
2023-12-30T14:44:29.851Z,68.48
2023-12-30T14:46:57.702Z,68.67
2023-12-30T14:49:25.609Z,68.84
2023-12-30T14:51:54.902Z,68.80
2023-12-30T14:54:22.724Z,68.92
2023-12-30T14:56:50.511Z,68.91
2023-12-30T14:59:19.949Z,69.00
2023-12-30T15:01:47.805Z,68.98
2023-12-30T15:04:18.217Z,69.03
2023-12-30T15:06:46.074Z,69.18
2023-12-30T15:09:13.822Z,69.35
2023-12-30T15:11:43.236Z,69.38
2023-12-30T15:14:11.305Z,69.44
2023-12-30T15:16:41.610Z,69.51
2023-12-30T15:19:09.824Z,69.42
2023-12-30T15:21:40.024Z,69.35
2023-12-30T15:24:08.093Z,69.47
2023-12-30T15:26:35.952Z,69.31
2023-12-30T15:29:05.031Z,69.44
2023-12-30T15:31:33.044Z,69.54
2023-12-30T15:34:01.001Z,69.61
2023-12-30T15:36:30.473Z,70.04
2023-12-30T15:38:58.250Z,69.77
2023-12-30T15:41:28.367Z,69.73
2023-12-30T15:43:56.262Z,69.95
2023-12-30T15:46:24.435Z,69.76
2023-12-30T15:48:53.759Z,69.74
2023-12-30T15:51:21.553Z,69.81
2023-12-30T15:53:49.131Z,69.74
2023-12-30T15:56:18.220Z,69.87
2023-12-30T15:58:46.523Z,69.80
2023-12-30T16:01:14.342Z,69.78
2023-12-30T16:03:43.384Z,69.73
2023-12-30T16:06:11.310Z,69.75
2023-12-30T16:08:39.186Z,69.81
2023-12-30T16:11:08.276Z,69.77
2023-12-30T16:13:35.953Z,69.78
2023-12-30T16:16:03.722Z,69.71
2023-12-30T16:18:33.155Z,69.91
2023-12-30T16:21:00.975Z,69.83
2023-12-30T16:23:30.902Z,69.93
2023-12-30T16:25:58.748Z,69.88
2023-12-30T16:28:26.486Z,69.98
2023-12-30T16:30:55.768Z,69.99
2023-12-30T16:33:23.926Z,70.00
2023-12-30T16:35:51.738Z,69.83
2023-12-30T16:38:20.739Z,69.71
2023-12-30T16:40:48.774Z,69.67
2023-12-30T16:43:16.586Z,69.48
2023-12-30T16:45:46.353Z,69.24
2023-12-30T16:48:15.041Z,69.13
2023-12-30T16:50:44.074Z,69.09
2023-12-30T16:53:11.939Z,69.08
2023-12-30T16:55:39.564Z,68.89
2023-12-30T16:58:08.701Z,68.90
2023-12-30T17:00:36.498Z,68.91
2023-12-30T17:03:04.873Z,68.96
2023-12-30T17:05:34.027Z,68.99
2023-12-30T17:08:01.778Z,68.97
2023-12-30T17:10:29.727Z,69.14
2023-12-30T17:12:58.906Z,69.20
2023-12-30T17:15:26.813Z,69.32
2023-12-30T17:17:54.410Z,69.54
2023-12-30T17:20:23.483Z,69.66
2023-12-30T17:22:51.015Z,69.94
2023-12-30T17:25:18.978Z,70.24
2023-12-30T17:27:48.513Z,70.51
2023-12-30T17:30:16.416Z,70.72
2023-12-30T17:32:46.448Z,71.02
2023-12-30T17:35:14.256Z,71.18
2023-12-30T17:37:41.994Z,71.45
2023-12-30T17:40:11.146Z,71.63
2023-12-30T17:42:39.082Z,71.68
2023-12-30T17:45:06.861Z,71.78
2023-12-30T17:47:35.844Z,71.97
2023-12-30T17:50:03.903Z,72.10
2023-12-30T17:52:31.615Z,72.23
2023-12-30T17:55:01.355Z,72.34
2023-12-30T17:57:29.227Z,72.40
2023-12-30T17:59:59.156Z,72.59
2023-12-30T18:02:26.990Z,72.71
2023-12-30T18:04:54.740Z,72.84
2023-12-30T18:07:23.917Z,72.97
2023-12-30T18:09:52.044Z,73.24
2023-12-30T18:12:19.705Z,73.40
2023-12-30T18:14:48.715Z,73.53
2023-12-30T18:17:16.579Z,73.89
2023-12-30T18:19:44.278Z,74.21
2023-12-30T18:22:13.472Z,74.40
2023-12-30T18:24:41.513Z,74.54
2023-12-30T18:27:11.821Z,74.77
2023-12-30T18:29:39.637Z,74.90
2023-12-30T18:32:07.791Z,75.18
2023-12-30T18:34:36.970Z,75.12
2023-12-30T18:37:04.847Z,75.31
2023-12-30T18:39:32.679Z,75.06
2023-12-30T18:42:01.662Z,75.01
2023-12-30T18:44:29.356Z,74.91
2023-12-30T18:46:57.130Z,74.75
2023-12-30T18:49:26.351Z,74.57
2023-12-30T18:51:54.196Z,74.46
2023-12-30T18:54:21.818Z,74.38
2023-12-30T18:56:50.920Z,74.31
2023-12-30T18:59:18.788Z,74.26
2023-12-30T19:01:46.751Z,74.15
2023-12-30T19:04:16.038Z,74.11
2023-12-30T19:06:44.133Z,74.05
2023-12-30T19:09:14.462Z,73.96
2023-12-30T19:11:42.544Z,73.88
2023-12-30T19:14:10.401Z,73.82
2023-12-30T19:16:39.390Z,73.74
2023-12-30T19:19:07.275Z,73.74
2023-12-30T19:21:34.922Z,73.79
2023-12-30T19:24:03.905Z,73.83
2023-12-30T19:26:31.700Z,74.00
2023-12-30T19:28:59.544Z,74.03
2023-12-30T19:31:28.648Z,73.98
2023-12-30T19:33:56.936Z,73.88
2023-12-30T19:36:27.424Z,73.72
2023-12-30T19:38:55.728Z,73.71
2023-12-30T19:41:25.742Z,73.46
2023-12-30T19:43:53.703Z,73.37
2023-12-30T19:46:21.487Z,73.05
2023-12-30T19:48:50.567Z,72.97
2023-12-30T19:51:18.436Z,72.83
2023-12-30T19:53:45.973Z,72.56
2023-12-30T19:56:15.780Z,72.40
2023-12-30T19:58:43.731Z,72.21
2023-12-30T20:01:11.577Z,72.04
2023-12-30T20:03:40.724Z,71.87
2023-12-30T20:06:08.739Z,71.81
2023-12-30T20:08:36.571Z,71.73
2023-12-30T20:11:05.877Z,71.67
2023-12-30T20:13:33.652Z,71.52
2023-12-30T20:16:01.963Z,71.50
2023-12-30T20:18:30.930Z,71.35
2023-12-30T20:20:58.842Z,71.08
2023-12-30T20:23:26.611Z,70.90
2023-12-30T20:25:55.826Z,70.83
2023-12-30T20:28:23.620Z,70.77
2023-12-30T20:30:51.485Z,70.72
2023-12-30T20:33:20.692Z,70.76
2023-12-30T20:35:48.496Z,70.72
2023-12-30T20:38:16.466Z,70.74
2023-12-30T20:40:47.066Z,70.83
2023-12-30T20:43:15.176Z,70.83
2023-12-30T20:45:44.466Z,71.10
2023-12-30T20:48:12.435Z,71.43
2023-12-30T20:50:42.568Z,71.78
2023-12-30T20:53:10.529Z,72.17
2023-12-30T20:55:40.896Z,72.53
2023-12-30T20:58:08.641Z,73.06
2023-12-30T21:00:36.824Z,73.30
2023-12-30T21:03:05.863Z,73.71
2023-12-30T21:05:33.696Z,74.05
2023-12-30T21:08:01.498Z,74.26
2023-12-30T21:10:30.577Z,74.48
2023-12-30T21:12:58.401Z,74.66
2023-12-30T21:15:26.261Z,74.82
2023-12-30T21:17:55.385Z,75.00
2023-12-30T21:20:23.295Z,75.17
2023-12-30T21:22:51.012Z,75.36
2023-12-30T21:25:26.600Z,75.68
2023-12-30T21:27:56.823Z,76.16
2023-12-30T21:30:24.481Z,76.46
2023-12-30T21:32:52.289Z,76.53
2023-12-30T21:35:21.347Z,76.70
2023-12-30T21:37:49.152Z,76.82
2023-12-30T21:40:17.111Z,76.93
2023-12-30T21:42:46.054Z,76.97
2023-12-30T21:45:13.730Z,77.09
2023-12-30T21:47:41.442Z,77.19
2023-12-30T21:50:11.042Z,77.49
2023-12-30T21:52:39.679Z,77.63
2023-12-30T21:55:09.001Z,77.78
2023-12-30T21:57:36.856Z,77.79
2023-12-30T22:00:04.620Z,77.84
2023-12-30T22:02:33.614Z,77.72
2023-12-30T22:05:01.676Z,77.65
2023-12-30T22:07:29.461Z,77.67
2023-12-30T22:09:58.719Z,77.62
2023-12-30T22:12:26.407Z,77.68
2023-12-30T22:14:54.161Z,77.60
2023-12-30T22:17:23.477Z,77.82
2023-12-30T22:19:51.480Z,77.88
2023-12-30T22:22:19.542Z,77.80
2023-12-30T22:24:48.613Z,78.08
2023-12-30T22:27:16.453Z,78.10
2023-12-30T22:29:44.133Z,78.16
2023-12-30T22:32:13.404Z,78.29
2023-12-30T22:34:41.115Z,78.37
2023-12-30T22:37:09.082Z,78.60
2023-12-30T22:39:37.939Z,78.63
2023-12-30T22:42:05.729Z,78.61
2023-12-30T22:44:36.079Z,78.58
2023-12-30T22:47:06.792Z,78.50
2023-12-30T22:49:34.790Z,78.36
2023-12-30T22:52:02.528Z,78.53
2023-12-30T22:54:31.591Z,78.61
2023-12-30T22:56:59.463Z,78.61
2023-12-30T22:59:27.238Z,78.71
2023-12-30T23:01:56.283Z,78.98
2023-12-30T23:04:24.141Z,79.04
2023-12-30T23:06:51.954Z,79.33
2023-12-30T23:09:21.075Z,79.32
2023-12-30T23:11:48.909Z,79.17
2023-12-30T23:14:17.067Z,79.16
2023-12-30T23:16:46.144Z,79.09
2023-12-30T23:19:14.085Z,79.25
2023-12-30T23:21:41.906Z,79.08
2023-12-30T23:24:10.992Z,79.23
2023-12-30T23:26:38.663Z,79.21
2023-12-30T23:29:06.515Z,79.49
2023-12-30T23:31:35.610Z,79.21
2023-12-30T23:34:03.634Z,79.08
2023-12-30T23:36:31.548Z,79.12
2023-12-30T23:39:00.752Z,79.25
2023-12-30T23:41:28.889Z,79.37
2023-12-30T23:43:56.485Z,79.39
2023-12-30T23:46:25.754Z,79.54
2023-12-30T23:48:53.722Z,79.55
2023-12-30T23:51:21.518Z,79.44
2023-12-30T23:53:50.292Z,79.56
2023-12-30T23:56:18.373Z,79.50
2023-12-30T23:58:46.347Z,79.79
